sensor_id;sensor_type;location;lat;lon;timestamp;temperature;humidity
16271;DHT22;8243;49.048;8.396;2023-02-28T00:01:12;0.00;40.70
16271;DHT22;8243;49.048;8.396;2023-02-28T00:03:37;-0.10;39.90
16271;DHT22;8243;49.048;8.396;2023-02-28T00:06:04;-0.30;40.00
16271;DHT22;8243;49.048;8.396;2023-02-28T00:08:30;0.00;40.10
16271;DHT22;8243;49.048;8.396;2023-02-28T00:10:56;0.00;40.20
16271;DHT22;8243;49.048;8.396;2023-02-28T00:13:21;0.00;40.60
16271;DHT22;8243;49.048;8.396;2023-02-28T00:15:47;0.10;40.90
16271;DHT22;8243;49.048;8.396;2023-02-28T00:18:12;-0.10;41.10
16271;DHT22;8243;49.048;8.396;2023-02-28T00:20:38;-0.30;41.40
16271;DHT22;8243;49.048;8.396;2023-02-28T00:23:04;-0.10;41.80
16271;DHT22;8243;49.048;8.396;2023-02-28T00:25:29;-0.20;41.90
16271;DHT22;8243;49.048;8.396;2023-02-28T00:27:55;-0.20;41.80
16271;DHT22;8243;49.048;8.396;2023-02-28T00:30:23;-0.30;41.60
16271;DHT22;8243;49.048;8.396;2023-02-28T00:32:49;-0.20;41.90
16271;DHT22;8243;49.048;8.396;2023-02-28T00:35:15;-0.10;42.00
16271;DHT22;8243;49.048;8.396;2023-02-28T00:37:41;-0.10;42.00
16271;DHT22;8243;49.048;8.396;2023-02-28T00:40:08;-0.10;42.30
16271;DHT22;8243;49.048;8.396;2023-02-28T00:42:35;-0.20;42.60
16271;DHT22;8243;49.048;8.396;2023-02-28T00:45:01;-0.30;42.80
16271;DHT22;8243;49.048;8.396;2023-02-28T00:47:26;-0.40;43.10
16271;DHT22;8243;49.048;8.396;2023-02-28T00:49:52;-0.40;43.30
16271;DHT22;8243;49.048;8.396;2023-02-28T00:52:17;-0.40;43.60
16271;DHT22;8243;49.048;8.396;2023-02-28T00:54:43;-0.40;43.60
16271;DHT22;8243;49.048;8.396;2023-02-28T00:57:08;-0.40;43.70
16271;DHT22;8243;49.048;8.396;2023-02-28T00:59:35;-0.30;44.20
16271;DHT22;8243;49.048;8.396;2023-02-28T01:02:00;-0.30;44.20
16271;DHT22;8243;49.048;8.396;2023-02-28T01:04:26;-0.40;44.20
16271;DHT22;8243;49.048;8.396;2023-02-28T01:06:51;-0.50;44.20
16271;DHT22;8243;49.048;8.396;2023-02-28T01:09:17;-0.20;44.60
16271;DHT22;8243;49.048;8.396;2023-02-28T01:11:43;-0.40;44.60
16271;DHT22;8243;49.048;8.396;2023-02-28T01:14:12;-0.60;45.00
16271;DHT22;8243;49.048;8.396;2023-02-28T01:16:39;-0.30;45.60
16271;DHT22;8243;49.048;8.396;2023-02-28T01:19:04;-0.50;45.60
16271;DHT22;8243;49.048;8.396;2023-02-28T01:21:30;-0.50;46.00
16271;DHT22;8243;49.048;8.396;2023-02-28T01:23:57;-0.70;46.20
16271;DHT22;8243;49.048;8.396;2023-02-28T01:26:23;-0.60;46.70
16271;DHT22;8243;49.048;8.396;2023-02-28T01:28:49;-0.60;46.80
16271;DHT22;8243;49.048;8.396;2023-02-28T01:31:15;-0.50;47.00
16271;DHT22;8243;49.048;8.396;2023-02-28T01:33:41;-0.40;47.30
16271;DHT22;8243;49.048;8.396;2023-02-28T01:36:13;-0.70;47.70
16271;DHT22;8243;49.048;8.396;2023-02-28T01:38:40;-0.70;47.70
16271;DHT22;8243;49.048;8.396;2023-02-28T01:41:07;-0.60;48.00
16271;DHT22;8243;49.048;8.396;2023-02-28T01:43:54;-0.80;48.40
16271;DHT22;8243;49.048;8.396;2023-02-28T01:46:20;-0.80;49.70
16271;DHT22;8243;49.048;8.396;2023-02-28T01:51:16;-0.80;49.80
16271;DHT22;8243;49.048;8.396;2023-02-28T01:53:47;-0.80;50.10
16271;DHT22;8243;49.048;8.396;2023-02-28T01:56:18;-0.60;50.20
16271;DHT22;8243;49.048;8.396;2023-02-28T01:58:47;-0.80;49.60
16271;DHT22;8243;49.048;8.396;2023-02-28T02:01:13;-0.60;49.90
16271;DHT22;8243;49.048;8.396;2023-02-28T02:03:50;-0.70;50.00
16271;DHT22;8243;49.048;8.396;2023-02-28T02:06:37;-0.60;50.10
16271;DHT22;8243;49.048;8.396;2023-02-28T02:09:03;-0.80;50.50
16271;DHT22;8243;49.048;8.396;2023-02-28T02:11:29;-0.60;50.90
16271;DHT22;8243;49.048;8.396;2023-02-28T02:27:32;-0.70;52.70
16271;DHT22;8243;49.048;8.396;2023-02-28T02:35:55;-0.70;53.20
16271;DHT22;8243;49.048;8.396;2023-02-28T02:39:19;-0.80;53.00
16271;DHT22;8243;49.048;8.396;2023-02-28T02:41:18;-0.50;53.50
16271;DHT22;8243;49.048;8.396;2023-02-28T02:44:04;-0.90;53.70
16271;DHT22;8243;49.048;8.396;2023-02-28T02:46:39;-0.80;54.00
16271;DHT22;8243;49.048;8.396;2023-02-28T02:49:10;-0.80;54.20
16271;DHT22;8243;49.048;8.396;2023-02-28T02:51:38;-0.70;54.80
16271;DHT22;8243;49.048;8.396;2023-02-28T02:56:31;-0.80;55.40
16271;DHT22;8243;49.048;8.396;2023-02-28T02:59:02;-0.80;55.30
16271;DHT22;8243;49.048;8.396;2023-02-28T03:01:29;-0.70;55.60
16271;DHT22;8243;49.048;8.396;2023-02-28T03:03:58;-0.70;55.70
16271;DHT22;8243;49.048;8.396;2023-02-28T03:06:25;-0.70;55.90
16271;DHT22;8243;49.048;8.396;2023-02-28T03:08:50;-0.80;55.90
16271;DHT22;8243;49.048;8.396;2023-02-28T03:11:16;-0.90;56.00
16271;DHT22;8243;49.048;8.396;2023-02-28T03:13:55;-0.70;56.30
16271;DHT22;8243;49.048;8.396;2023-02-28T03:16:32;-1.00;56.20
16271;DHT22;8243;49.048;8.396;2023-02-28T03:19:02;-1.00;56.70
16271;DHT22;8243;49.048;8.396;2023-02-28T03:26:31;-0.70;56.50
16271;DHT22;8243;49.048;8.396;2023-02-28T03:29:15;-0.50;57.10
16271;DHT22;8243;49.048;8.396;2023-02-28T03:31:52;-0.60;56.20
16271;DHT22;8243;49.048;8.396;2023-02-28T03:34:40;-0.60;56.30
16271;DHT22;8243;49.048;8.396;2023-02-28T03:37:19;-0.50;56.20
16271;DHT22;8243;49.048;8.396;2023-02-28T03:39:57;-0.60;56.30
16271;DHT22;8243;49.048;8.396;2023-02-28T03:42:27;-0.40;56.30
16271;DHT22;8243;49.048;8.396;2023-02-28T03:44:57;-0.60;56.30
16271;DHT22;8243;49.048;8.396;2023-02-28T03:47:39;-0.40;56.20
16271;DHT22;8243;49.048;8.396;2023-02-28T03:50:20;-0.30;56.00
16271;DHT22;8243;49.048;8.396;2023-02-28T03:52:56;-0.50;55.90
16271;DHT22;8243;49.048;8.396;2023-02-28T03:55:28;-0.50;55.70
16271;DHT22;8243;49.048;8.396;2023-02-28T04:00:55;-0.40;55.70
16271;DHT22;8243;49.048;8.396;2023-02-28T04:03:22;-0.40;56.50
16271;DHT22;8243;49.048;8.396;2023-02-28T04:05:55;-0.60;55.80
16271;DHT22;8243;49.048;8.396;2023-02-28T04:08:22;-0.60;55.40
16271;DHT22;8243;49.048;8.396;2023-02-28T04:11:01;-0.40;55.40
16271;DHT22;8243;49.048;8.396;2023-02-28T04:13:29;-0.30;55.50
16271;DHT22;8243;49.048;8.396;2023-02-28T04:15:55;-0.30;55.40
16271;DHT22;8243;49.048;8.396;2023-02-28T04:18:20;-0.30;55.40
16271;DHT22;8243;49.048;8.396;2023-02-28T04:20:46;-0.30;55.70
16271;DHT22;8243;49.048;8.396;2023-02-28T04:23:11;-0.40;55.50
16271;DHT22;8243;49.048;8.396;2023-02-28T04:25:37;-0.50;55.40
16271;DHT22;8243;49.048;8.396;2023-02-28T04:28:02;-0.30;55.20
16271;DHT22;8243;49.048;8.396;2023-02-28T04:30:28;-0.30;55.50
16271;DHT22;8243;49.048;8.396;2023-02-28T04:32:54;-0.40;55.40
16271;DHT22;8243;49.048;8.396;2023-02-28T04:35:20;-0.30;55.40
16271;DHT22;8243;49.048;8.396;2023-02-28T04:37:45;-0.30;55.20
16271;DHT22;8243;49.048;8.396;2023-02-28T04:40:11;-0.40;55.10
16271;DHT22;8243;49.048;8.396;2023-02-28T04:42:37;-0.30;55.10
16271;DHT22;8243;49.048;8.396;2023-02-28T04:45:03;-0.30;55.20
16271;DHT22;8243;49.048;8.396;2023-02-28T04:47:29;-0.30;55.30
16271;DHT22;8243;49.048;8.396;2023-02-28T04:49:55;-0.40;55.70
16271;DHT22;8243;49.048;8.396;2023-02-28T04:52:20;-0.30;55.60
16271;DHT22;8243;49.048;8.396;2023-02-28T04:54:46;-0.40;55.20
16271;DHT22;8243;49.048;8.396;2023-02-28T04:57:11;-0.30;55.30
16271;DHT22;8243;49.048;8.396;2023-02-28T04:59:37;-0.20;55.70
16271;DHT22;8243;49.048;8.396;2023-02-28T05:02:02;-0.30;55.40
16271;DHT22;8243;49.048;8.396;2023-02-28T05:04:35;-0.30;55.70
16271;DHT22;8243;49.048;8.396;2023-02-28T05:07:01;-0.50;55.70
16271;DHT22;8243;49.048;8.396;2023-02-28T05:09:27;-0.40;55.80
16271;DHT22;8243;49.048;8.396;2023-02-28T05:11:54;-0.40;55.70
16271;DHT22;8243;49.048;8.396;2023-02-28T05:14:19;-0.30;56.20
16271;DHT22;8243;49.048;8.396;2023-02-28T05:16:45;-0.60;56.20
16271;DHT22;8243;49.048;8.396;2023-02-28T05:19:10;-0.50;56.60
16271;DHT22;8243;49.048;8.396;2023-02-28T05:21:38;-0.40;56.80
16271;DHT22;8243;49.048;8.396;2023-02-28T05:24:09;-0.50;56.80
16271;DHT22;8243;49.048;8.396;2023-02-28T05:26:40;-0.50;57.20
16271;DHT22;8243;49.048;8.396;2023-02-28T05:29:06;-0.50;57.20
16271;DHT22;8243;49.048;8.396;2023-02-28T05:31:32;-0.40;57.40
16271;DHT22;8243;49.048;8.396;2023-02-28T05:33:57;-0.40;57.40
16271;DHT22;8243;49.048;8.396;2023-02-28T05:36:23;-0.30;57.10
16271;DHT22;8243;49.048;8.396;2023-02-28T05:38:50;-0.50;57.10
16271;DHT22;8243;49.048;8.396;2023-02-28T05:41:17;-0.60;57.20
16271;DHT22;8243;49.048;8.396;2023-02-28T05:43:44;-0.50;57.60
16271;DHT22;8243;49.048;8.396;2023-02-28T05:46:11;-0.40;57.90
16271;DHT22;8243;49.048;8.396;2023-02-28T05:48:37;-0.40;57.40
16271;DHT22;8243;49.048;8.396;2023-02-28T05:51:04;-0.50;57.20
16271;DHT22;8243;49.048;8.396;2023-02-28T05:53:30;-0.40;57.30
16271;DHT22;8243;49.048;8.396;2023-02-28T05:55:56;-0.40;57.30
16271;DHT22;8243;49.048;8.396;2023-02-28T05:58:22;-0.50;57.00
16271;DHT22;8243;49.048;8.396;2023-02-28T06:00:48;-0.50;57.10
16271;DHT22;8243;49.048;8.396;2023-02-28T06:03:14;-0.30;57.10
16271;DHT22;8243;49.048;8.396;2023-02-28T06:05:39;-0.50;57.00
16271;DHT22;8243;49.048;8.396;2023-02-28T06:08:05;-0.30;57.30
16271;DHT22;8243;49.048;8.396;2023-02-28T06:10:34;-0.30;57.50
16271;DHT22;8243;49.048;8.396;2023-02-28T06:13:01;-0.20;57.60
16271;DHT22;8243;49.048;8.396;2023-02-28T06:15:28;-0.40;57.50
16271;DHT22;8243;49.048;8.396;2023-02-28T06:17:54;-0.20;57.50
16271;DHT22;8243;49.048;8.396;2023-02-28T06:20:22;-0.30;57.30
16271;DHT22;8243;49.048;8.396;2023-02-28T06:22:48;-0.30;56.80
16271;DHT22;8243;49.048;8.396;2023-02-28T06:25:15;-0.30;57.00
16271;DHT22;8243;49.048;8.396;2023-02-28T06:27:41;-0.10;56.20
16271;DHT22;8243;49.048;8.396;2023-02-28T06:30:07;-0.20;56.10
16271;DHT22;8243;49.048;8.396;2023-02-28T06:32:33;0.00;55.80
16271;DHT22;8243;49.048;8.396;2023-02-28T06:34:58;-0.20;55.40
16271;DHT22;8243;49.048;8.396;2023-02-28T06:37:24;-0.10;55.30
16271;DHT22;8243;49.048;8.396;2023-02-28T06:39:53;-0.20;55.10
16271;DHT22;8243;49.048;8.396;2023-02-28T06:42:19;0.00;55.00
16271;DHT22;8243;49.048;8.396;2023-02-28T06:44:45;-0.10;54.80
16271;DHT22;8243;49.048;8.396;2023-02-28T06:47:10;-0.10;54.80
16271;DHT22;8243;49.048;8.396;2023-02-28T06:49:36;-0.10;54.70
16271;DHT22;8243;49.048;8.396;2023-02-28T06:52:02;-0.10;54.40
16271;DHT22;8243;49.048;8.396;2023-02-28T06:54:28;-0.10;53.90
16271;DHT22;8243;49.048;8.396;2023-02-28T06:56:53;0.00;53.90
16271;DHT22;8243;49.048;8.396;2023-02-28T06:59:20;0.10;54.00
16271;DHT22;8243;49.048;8.396;2023-02-28T07:01:45;0.00;53.70
16271;DHT22;8243;49.048;8.396;2023-02-28T07:04:12;0.20;53.80
16271;DHT22;8243;49.048;8.396;2023-02-28T07:06:38;0.10;53.00
16271;DHT22;8243;49.048;8.396;2023-02-28T07:09:04;0.40;52.90
16271;DHT22;8243;49.048;8.396;2023-02-28T07:11:30;0.40;53.10
16271;DHT22;8243;49.048;8.396;2023-02-28T07:13:56;0.30;52.40
16271;DHT22;8243;49.048;8.396;2023-02-28T07:16:23;0.20;52.40
16271;DHT22;8243;49.048;8.396;2023-02-28T07:18:51;0.30;52.50
16271;DHT22;8243;49.048;8.396;2023-02-28T07:21:17;0.40;52.20
16271;DHT22;8243;49.048;8.396;2023-02-28T07:23:42;0.50;52.50
16271;DHT22;8243;49.048;8.396;2023-02-28T07:26:13;0.20;52.30
16271;DHT22;8243;49.048;8.396;2023-02-28T07:28:43;0.40;52.40
16271;DHT22;8243;49.048;8.396;2023-02-28T07:31:09;0.30;51.50
16271;DHT22;8243;49.048;8.396;2023-02-28T07:33:36;0.30;51.00
16271;DHT22;8243;49.048;8.396;2023-02-28T07:36:04;0.20;50.90
16271;DHT22;8243;49.048;8.396;2023-02-28T07:38:30;0.30;51.00
16271;DHT22;8243;49.048;8.396;2023-02-28T07:40:55;0.60;50.70
16271;DHT22;8243;49.048;8.396;2023-02-28T07:43:21;0.40;50.30
16271;DHT22;8243;49.048;8.396;2023-02-28T07:45:46;0.60;50.50
16271;DHT22;8243;49.048;8.396;2023-02-28T07:48:12;0.70;50.30
16271;DHT22;8243;49.048;8.396;2023-02-28T07:50:37;0.50;49.70
16271;DHT22;8243;49.048;8.396;2023-02-28T07:53:03;0.60;49.60
16271;DHT22;8243;49.048;8.396;2023-02-28T07:55:29;0.60;48.90
16271;DHT22;8243;49.048;8.396;2023-02-28T07:57:57;0.80;49.10
16271;DHT22;8243;49.048;8.396;2023-02-28T08:00:23;0.80;48.40
16271;DHT22;8243;49.048;8.396;2023-02-28T08:02:49;0.80;48.30
16271;DHT22;8243;49.048;8.396;2023-02-28T08:05:14;0.80;48.40
16271;DHT22;8243;49.048;8.396;2023-02-28T08:07:40;0.80;48.30
16271;DHT22;8243;49.048;8.396;2023-02-28T08:10:06;0.90;47.90
16271;DHT22;8243;49.048;8.396;2023-02-28T08:12:32;0.80;47.30
16271;DHT22;8243;49.048;8.396;2023-02-28T08:14:58;0.80;47.10
16271;DHT22;8243;49.048;8.396;2023-02-28T08:17:23;1.00;46.70
16271;DHT22;8243;49.048;8.396;2023-02-28T08:19:49;0.90;46.80
16271;DHT22;8243;49.048;8.396;2023-02-28T08:22:14;1.10;45.70
16271;DHT22;8243;49.048;8.396;2023-02-28T08:24:41;1.00;45.70
16271;DHT22;8243;49.048;8.396;2023-02-28T08:27:08;1.10;45.80
16271;DHT22;8243;49.048;8.396;2023-02-28T08:29:37;1.20;45.20
16271;DHT22;8243;49.048;8.396;2023-02-28T08:32:03;1.10;43.90
16271;DHT22;8243;49.048;8.396;2023-02-28T08:34:29;1.20;44.40
16271;DHT22;8243;49.048;8.396;2023-02-28T08:36:54;1.30;43.90
16271;DHT22;8243;49.048;8.396;2023-02-28T08:39:20;1.50;43.50
16271;DHT22;8243;49.048;8.396;2023-02-28T08:41:46;1.40;43.30
16271;DHT22;8243;49.048;8.396;2023-02-28T08:44:12;1.50;42.70
16271;DHT22;8243;49.048;8.396;2023-02-28T08:46:38;1.40;42.40
16271;DHT22;8243;49.048;8.396;2023-02-28T08:49:03;1.40;42.40
16271;DHT22;8243;49.048;8.396;2023-02-28T08:51:29;1.40;42.10
16271;DHT22;8243;49.048;8.396;2023-02-28T08:53:59;1.60;41.40
16271;DHT22;8243;49.048;8.396;2023-02-28T08:56:26;1.60;41.00
16271;DHT22;8243;49.048;8.396;2023-02-28T08:58:54;1.70;41.30
16271;DHT22;8243;49.048;8.396;2023-02-28T09:01:28;1.80;40.50
16271;DHT22;8243;49.048;8.396;2023-02-28T09:03:55;1.70;40.40
16271;DHT22;8243;49.048;8.396;2023-02-28T09:06:22;1.90;40.10
16271;DHT22;8243;49.048;8.396;2023-02-28T09:08:48;2.00;39.50
16271;DHT22;8243;49.048;8.396;2023-02-28T09:11:13;2.30;39.00
16271;DHT22;8243;49.048;8.396;2023-02-28T09:13:39;2.10;37.50
16271;DHT22;8243;49.048;8.396;2023-02-28T09:16:06;2.20;37.60
16271;DHT22;8243;49.048;8.396;2023-02-28T09:18:34;2.10;37.70
16271;DHT22;8243;49.048;8.396;2023-02-28T09:21:04;2.00;37.40
16271;DHT22;8243;49.048;8.396;2023-02-28T09:23:30;2.30;37.00
16271;DHT22;8243;49.048;8.396;2023-02-28T09:25:55;2.60;36.10
16271;DHT22;8243;49.048;8.396;2023-02-28T09:28:22;2.50;34.10
16271;DHT22;8243;49.048;8.396;2023-02-28T09:30:49;2.50;34.30
16271;DHT22;8243;49.048;8.396;2023-02-28T09:33:16;2.60;34.70
16271;DHT22;8243;49.048;8.396;2023-02-28T09:35:42;2.50;33.50
16271;DHT22;8243;49.048;8.396;2023-02-28T09:38:09;2.60;33.50
16271;DHT22;8243;49.048;8.396;2023-02-28T09:40:49;2.60;32.90
16271;DHT22;8243;49.048;8.396;2023-02-28T09:43:16;2.90;31.70
16271;DHT22;8243;49.048;8.396;2023-02-28T09:46:36;2.50;31.70
16271;DHT22;8243;49.048;8.396;2023-02-28T09:48:39;3.00;30.50
16271;DHT22;8243;49.048;8.396;2023-02-28T09:51:31;4.30;27.30
16271;DHT22;8243;49.048;8.396;2023-02-28T09:54:00;4.20;25.40
16271;DHT22;8243;49.048;8.396;2023-02-28T09:56:31;4.20;25.60
16271;DHT22;8243;49.048;8.396;2023-02-28T10:07:19;3.60;26.80
16271;DHT22;8243;49.048;8.396;2023-02-28T10:09:51;3.40;26.60
16271;DHT22;8243;49.048;8.396;2023-02-28T10:12:18;3.50;26.70
16271;DHT22;8243;49.048;8.396;2023-02-28T10:14:47;3.60;26.60
16271;DHT22;8243;49.048;8.396;2023-02-28T10:17:26;3.20;26.50
16271;DHT22;8243;49.048;8.396;2023-02-28T10:20:06;3.10;26.80
16271;DHT22;8243;49.048;8.396;2023-02-28T10:22:38;3.10;26.60
16271;DHT22;8243;49.048;8.396;2023-02-28T10:25:20;3.40;26.60
16271;DHT22;8243;49.048;8.396;2023-02-28T10:27:45;4.00;25.40
16271;DHT22;8243;49.048;8.396;2023-02-28T10:30:12;3.80;24.50
16271;DHT22;8243;49.048;8.396;2023-02-28T10:32:43;4.00;24.30
16271;DHT22;8243;49.048;8.396;2023-02-28T10:35:39;4.50;22.90
16271;DHT22;8243;49.048;8.396;2023-02-28T10:38:15;4.00;22.80
16271;DHT22;8243;49.048;8.396;2023-02-28T10:40:41;3.70;23.50
16271;DHT22;8243;49.048;8.396;2023-02-28T10:45:39;3.90;23.20
16271;DHT22;8243;49.048;8.396;2023-02-28T10:51:08;4.30;22.60
16271;DHT22;8243;49.048;8.396;2023-02-28T10:53:50;4.00;23.40
16271;DHT22;8243;49.048;8.396;2023-02-28T10:56:21;4.20;22.90
16271;DHT22;8243;49.048;8.396;2023-02-28T11:01:39;4.60;22.20
16271;DHT22;8243;49.048;8.396;2023-02-28T11:06:53;4.20;21.90
16271;DHT22;8243;49.048;8.396;2023-02-28T11:09:28;4.50;21.80
16271;DHT22;8243;49.048;8.396;2023-02-28T11:11:57;4.60;21.70
16271;DHT22;8243;49.048;8.396;2023-02-28T11:14:28;4.80;20.10
16271;DHT22;8243;49.048;8.396;2023-02-28T11:16:59;4.50;20.10
16271;DHT22;8243;49.048;8.396;2023-02-28T11:19:34;4.40;20.80
16271;DHT22;8243;49.048;8.396;2023-02-28T11:22:04;4.10;21.00
16271;DHT22;8243;49.048;8.396;2023-02-28T11:24:35;4.10;21.20
16271;DHT22;8243;49.048;8.396;2023-02-28T11:27:01;4.10;21.30
16271;DHT22;8243;49.048;8.396;2023-02-28T11:29:29;3.90;21.30
16271;DHT22;8243;49.048;8.396;2023-02-28T11:32:17;4.20;20.80
16271;DHT22;8243;49.048;8.396;2023-02-28T11:34:45;4.40;20.60
16271;DHT22;8243;49.048;8.396;2023-02-28T11:37:18;4.60;20.50
16271;DHT22;8243;49.048;8.396;2023-02-28T11:39:45;4.40;20.60
16271;DHT22;8243;49.048;8.396;2023-02-28T12:01:24;4.10;20.50
16271;DHT22;8243;49.048;8.396;2023-02-28T12:06:40;4.50;19.60
16271;DHT22;8243;49.048;8.396;2023-02-28T12:11:56;5.00;19.00
16271;DHT22;8243;49.048;8.396;2023-02-28T12:17:21;5.00;18.60
16271;DHT22;8243;49.048;8.396;2023-02-28T12:23:00;4.40;19.50
16271;DHT22;8243;49.048;8.396;2023-02-28T12:28:21;4.50;19.80
16271;DHT22;8243;49.048;8.396;2023-02-28T12:31:01;4.50;19.60
16271;DHT22;8243;49.048;8.396;2023-02-28T12:33:43;4.70;19.10
16271;DHT22;8243;49.048;8.396;2023-02-28T12:36:11;5.00;18.70
16271;DHT22;8243;49.048;8.396;2023-02-28T12:39:05;5.00;18.80
16271;DHT22;8243;49.048;8.396;2023-02-28T12:41:42;5.00;18.60
16271;DHT22;8243;49.048;8.396;2023-02-28T12:46:58;5.10;17.80
16271;DHT22;8243;49.048;8.396;2023-02-28T12:49:33;5.20;18.10
16271;DHT22;8243;49.048;8.396;2023-02-28T12:52:00;5.20;17.90
16271;DHT22;8243;49.048;8.396;2023-02-28T12:54:42;5.20;17.50
16271;DHT22;8243;49.048;8.396;2023-02-28T12:57:12;5.20;17.30
16271;DHT22;8243;49.048;8.396;2023-02-28T12:59:48;5.20;17.20
16271;DHT22;8243;49.048;8.396;2023-02-28T13:02:41;5.40;17.30
16271;DHT22;8243;49.048;8.396;2023-02-28T13:05:24;5.10;16.80
16271;DHT22;8243;49.048;8.396;2023-02-28T13:08:27;5.60;16.70
16271;DHT22;8243;49.048;8.396;2023-02-28T13:10:59;5.50;16.60
16271;DHT22;8243;49.048;8.396;2023-02-28T13:13:27;5.20;16.50
16271;DHT22;8243;49.048;8.396;2023-02-28T13:16:07;5.40;16.40
16271;DHT22;8243;49.048;8.396;2023-02-28T13:18:42;5.30;16.90
16271;DHT22;8243;49.048;8.396;2023-02-28T13:21:17;5.40;17.40
16271;DHT22;8243;49.048;8.396;2023-02-28T13:29:21;5.30;16.70
16271;DHT22;8243;49.048;8.396;2023-02-28T13:50:21;5.80;15.20
16271;DHT22;8243;49.048;8.396;2023-02-28T13:53:08;5.80;15.70
16271;DHT22;8243;49.048;8.396;2023-02-28T13:56:03;5.80;15.70
16271;DHT22;8243;49.048;8.396;2023-02-28T14:07:28;6.00;15.30
16271;DHT22;8243;49.048;8.396;2023-02-28T14:10:03;5.80;15.60
16271;DHT22;8243;49.048;8.396;2023-02-28T14:13:00;5.90;15.60
16271;DHT22;8243;49.048;8.396;2023-02-28T14:15:45;5.70;15.90
16271;DHT22;8243;49.048;8.396;2023-02-28T14:18:34;5.60;16.00
16271;DHT22;8243;49.048;8.396;2023-02-28T14:21:16;5.60;16.30
16271;DHT22;8243;49.048;8.396;2023-02-28T14:24:09;5.90;15.90
16271;DHT22;8243;49.048;8.396;2023-02-28T14:26:57;6.00;15.80
16271;DHT22;8243;49.048;8.396;2023-02-28T14:32:35;6.00;15.70
16271;DHT22;8243;49.048;8.396;2023-02-28T14:37:52;6.10;15.80
16271;DHT22;8243;49.048;8.396;2023-02-28T14:40:29;5.90;15.60
16271;DHT22;8243;49.048;8.396;2023-02-28T14:43:01;6.00;15.90
16271;DHT22;8243;49.048;8.396;2023-02-28T14:45:32;5.70;16.00
16271;DHT22;8243;49.048;8.396;2023-02-28T14:47:59;5.70;16.10
16271;DHT22;8243;49.048;8.396;2023-02-28T14:50:34;5.90;15.40
16271;DHT22;8243;49.048;8.396;2023-02-28T14:53:02;5.90;15.20
16271;DHT22;8243;49.048;8.396;2023-02-28T14:55:36;5.90;15.20
16271;DHT22;8243;49.048;8.396;2023-02-28T14:58:05;6.10;15.30
16271;DHT22;8243;49.048;8.396;2023-02-28T15:00:36;5.90;15.40
16271;DHT22;8243;49.048;8.396;2023-02-28T15:03:23;5.80;15.30
16271;DHT22;8243;49.048;8.396;2023-02-28T15:05:56;6.00;15.50
16271;DHT22;8243;49.048;8.396;2023-02-28T15:08:23;6.10;15.20
16271;DHT22;8243;49.048;8.396;2023-02-28T15:13:39;6.10;14.80
16271;DHT22;8243;49.048;8.396;2023-02-28T15:16:10;5.90;14.80
16271;DHT22;8243;49.048;8.396;2023-02-28T15:21:14;6.00;15.30
16271;DHT22;8243;49.048;8.396;2023-02-28T15:23:45;5.60;14.90
16271;DHT22;8243;49.048;8.396;2023-02-28T15:26:19;5.80;15.80
16271;DHT22;8243;49.048;8.396;2023-02-28T15:28:46;5.70;15.60
16271;DHT22;8243;49.048;8.396;2023-02-28T15:31:26;5.80;15.60
16271;DHT22;8243;49.048;8.396;2023-02-28T15:33:57;5.70;15.40
16271;DHT22;8243;49.048;8.396;2023-02-28T15:36:29;5.80;15.30
16271;DHT22;8243;49.048;8.396;2023-02-28T15:38:57;5.50;15.20
16271;DHT22;8243;49.048;8.396;2023-02-28T15:41:24;6.00;15.40
16271;DHT22;8243;49.048;8.396;2023-02-28T15:44:28;5.50;15.50
16271;DHT22;8243;49.048;8.396;2023-02-28T15:47:03;5.60;15.40
16271;DHT22;8243;49.048;8.396;2023-02-28T15:49:54;5.70;15.50
16271;DHT22;8243;49.048;8.396;2023-02-28T15:54:57;5.60;15.70
16271;DHT22;8243;49.048;8.396;2023-02-28T15:57:28;5.60;15.70
16271;DHT22;8243;49.048;8.396;2023-02-28T15:59:57;5.60;16.00
16271;DHT22;8243;49.048;8.396;2023-02-28T16:02:35;5.50;16.00
16271;DHT22;8243;49.048;8.396;2023-02-28T16:05:19;5.50;16.20
16271;DHT22;8243;49.048;8.396;2023-02-28T16:07:46;5.40;16.20
16271;DHT22;8243;49.048;8.396;2023-02-28T16:10:14;5.50;16.30
16271;DHT22;8243;49.048;8.396;2023-02-28T16:12:40;5.40;16.50
16271;DHT22;8243;49.048;8.396;2023-02-28T16:15:14;5.40;16.60
16271;DHT22;8243;49.048;8.396;2023-02-28T16:17:42;5.30;16.60
16271;DHT22;8243;49.048;8.396;2023-02-28T16:20:15;5.20;16.70
16271;DHT22;8243;49.048;8.396;2023-02-28T16:22:42;5.30;16.70
16271;DHT22;8243;49.048;8.396;2023-02-28T16:25:12;5.20;17.10
16271;DHT22;8243;49.048;8.396;2023-02-28T16:27:38;5.10;17.20
16271;DHT22;8243;49.048;8.396;2023-02-28T16:30:05;5.10;17.20
16271;DHT22;8243;49.048;8.396;2023-02-28T16:32:34;5.10;17.20
16271;DHT22;8243;49.048;8.396;2023-02-28T16:35:00;4.90;17.40
16271;DHT22;8243;49.048;8.396;2023-02-28T16:37:27;4.90;17.50
16271;DHT22;8243;49.048;8.396;2023-02-28T16:39:53;4.90;18.10
16271;DHT22;8243;49.048;8.396;2023-02-28T16:42:25;5.00;18.20
16271;DHT22;8243;49.048;8.396;2023-02-28T16:44:53;4.80;18.30
16271;DHT22;8243;49.048;8.396;2023-02-28T16:47:19;4.80;18.20
16271;DHT22;8243;49.048;8.396;2023-02-28T16:49:44;4.80;18.30
16271;DHT22;8243;49.048;8.396;2023-02-28T16:52:10;4.80;18.50
16271;DHT22;8243;49.048;8.396;2023-02-28T16:54:38;4.50;18.60
16271;DHT22;8243;49.048;8.396;2023-02-28T16:57:04;4.50;18.60
16271;DHT22;8243;49.048;8.396;2023-02-28T16:59:31;4.50;18.80
16271;DHT22;8243;49.048;8.396;2023-02-28T17:01:57;4.60;19.80
16271;DHT22;8243;49.048;8.396;2023-02-28T17:04:25;4.50;19.20
16271;DHT22;8243;49.048;8.396;2023-02-28T17:06:51;4.20;19.30
16271;DHT22;8243;49.048;8.396;2023-02-28T17:09:19;4.30;19.60
16271;DHT22;8243;49.048;8.396;2023-02-28T17:11:46;4.20;19.80
16271;DHT22;8243;49.048;8.396;2023-02-28T17:14:12;4.10;20.00
16271;DHT22;8243;49.048;8.396;2023-02-28T17:16:38;4.20;20.10
16271;DHT22;8243;49.048;8.396;2023-02-28T17:19:15;3.80;20.40
16271;DHT22;8243;49.048;8.396;2023-02-28T17:21:41;4.00;20.80
16271;DHT22;8243;49.048;8.396;2023-02-28T17:24:08;4.00;20.90
16271;DHT22;8243;49.048;8.396;2023-02-28T17:26:34;3.90;21.00
16271;DHT22;8243;49.048;8.396;2023-02-28T17:29:00;4.00;21.30
16271;DHT22;8243;49.048;8.396;2023-02-28T17:31:26;3.80;21.30
16271;DHT22;8243;49.048;8.396;2023-02-28T17:33:53;3.90;21.60
16271;DHT22;8243;49.048;8.396;2023-02-28T17:36:25;3.70;21.60
16271;DHT22;8243;49.048;8.396;2023-02-28T17:38:52;3.70;21.60
16271;DHT22;8243;49.048;8.396;2023-02-28T17:41:18;3.70;21.70
16271;DHT22;8243;49.048;8.396;2023-02-28T17:43:44;3.70;21.70
16271;DHT22;8243;49.048;8.396;2023-02-28T17:46:27;3.70;21.90
16271;DHT22;8243;49.048;8.396;2023-02-28T17:48:54;3.80;22.00
16271;DHT22;8243;49.048;8.396;2023-02-28T17:51:21;3.70;21.90
16271;DHT22;8243;49.048;8.396;2023-02-28T17:53:47;3.60;21.90
16271;DHT22;8243;49.048;8.396;2023-02-28T17:56:19;3.60;21.90
16271;DHT22;8243;49.048;8.396;2023-02-28T17:58:46;3.60;22.00
16271;DHT22;8243;49.048;8.396;2023-02-28T18:01:11;3.60;22.20
16271;DHT22;8243;49.048;8.396;2023-02-28T18:03:38;3.70;22.30
16271;DHT22;8243;49.048;8.396;2023-02-28T18:06:05;3.40;22.50
16271;DHT22;8243;49.048;8.396;2023-02-28T18:08:32;3.40;22.60
16271;DHT22;8243;49.048;8.396;2023-02-28T18:11:00;3.40;22.90
16271;DHT22;8243;49.048;8.396;2023-02-28T18:13:25;3.30;22.90
16271;DHT22;8243;49.048;8.396;2023-02-28T18:15:53;3.40;23.20
16271;DHT22;8243;49.048;8.396;2023-02-28T18:18:18;3.20;23.20
16271;DHT22;8243;49.048;8.396;2023-02-28T18:20:44;3.20;23.20
16271;DHT22;8243;49.048;8.396;2023-02-28T18:23:10;3.20;23.40
16271;DHT22;8243;49.048;8.396;2023-02-28T18:25:35;3.20;23.60